createdAt,value
2023-02-27T00:00:24.497Z,1.50
2023-02-27T00:02:52.129Z,2.03
2023-02-27T00:05:19.480Z,2.28
2023-02-27T00:07:46.066Z,1.77
2023-02-27T00:10:13.863Z,2.30
2023-02-27T00:12:40.573Z,2.15
2023-02-27T00:15:10.115Z,2.28
2023-02-27T00:17:36.930Z,1.80
2023-02-27T00:20:05.573Z,2.00
2023-02-27T00:22:32.178Z,1.90
2023-02-27T00:24:58.776Z,2.28
2023-02-27T00:27:25.318Z,1.70
2023-02-27T00:29:51.771Z,2.13
2023-02-27T00:32:18.324Z,2.10
2023-02-27T00:34:44.864Z,2.22
2023-02-27T00:37:11.311Z,2.20
2023-02-27T00:39:37.774Z,2.13
2023-02-27T00:42:04.572Z,2.47
2023-02-27T00:44:31.074Z,1.67
2023-02-27T00:46:57.530Z,1.90
2023-02-27T00:49:25.360Z,1.90
2023-02-27T00:51:52.352Z,2.13
2023-02-27T00:54:19.058Z,1.85
2023-02-27T00:56:45.932Z,1.87
2023-02-27T00:59:12.452Z,2.33
2023-02-27T01:01:38.992Z,2.50
2023-02-27T01:04:05.541Z,1.98
2023-02-27T01:06:32.491Z,2.15
2023-02-27T01:08:59.026Z,1.90
2023-02-27T01:11:25.881Z,2.55
2023-02-27T01:13:53.223Z,1.92
2023-02-27T01:16:19.711Z,1.92
2023-02-27T01:18:46.627Z,1.75
2023-02-27T01:21:13.231Z,2.27
2023-02-27T01:23:39.774Z,2.00
2023-02-27T01:26:06.343Z,1.80
2023-02-27T01:28:33.111Z,1.80
2023-02-27T01:30:59.692Z,1.92
2023-02-27T01:33:26.489Z,2.43
2023-02-27T01:35:53.010Z,1.60
2023-02-27T01:38:19.508Z,1.90
2023-02-27T01:40:46.162Z,1.90
2023-02-27T01:43:18.130Z,2.00
2023-02-27T01:45:49.767Z,2.33
2023-02-27T01:48:25.168Z,2.05
2023-02-27T01:51:03.630Z,1.85
2023-02-27T01:53:34.115Z,1.80
2023-02-27T01:56:07.817Z,2.00
2023-02-27T01:58:34.515Z,1.60
2023-02-27T02:01:01.142Z,2.13
2023-02-27T02:04:07.034Z,1.92
2023-02-27T02:06:36.475Z,2.15
2023-02-27T02:09:04.508Z,1.98
2023-02-27T02:11:31.174Z,1.57
2023-02-27T02:14:00.226Z,1.70
2023-02-27T02:16:48.861Z,1.70
2023-02-27T02:19:46.126Z,2.40
2023-02-27T02:22:18.291Z,2.10
2023-02-27T02:25:02.804Z,1.80
2023-02-27T02:27:38.400Z,1.40
2023-02-27T02:30:23.419Z,2.30
2023-02-27T02:33:15.146Z,2.10
2023-02-27T02:35:53.732Z,1.50
2023-02-27T02:38:29.318Z,1.60
2023-02-27T02:41:08.122Z,1.95
2023-02-27T02:43:55.920Z,1.40
2023-02-27T02:46:36.284Z,1.95
2023-02-27T02:49:30.511Z,2.40
2023-02-27T02:52:19.205Z,1.97
2023-02-27T02:54:57.911Z,2.20
2023-02-27T02:57:33.675Z,1.50
2023-02-27T03:00:20.182Z,1.13
2023-02-27T03:02:55.662Z,1.25
2023-02-27T03:05:27.266Z,0.83
2023-02-27T03:07:58.925Z,1.45
2023-02-27T03:10:49.624Z,0.80
2023-02-27T03:13:41.887Z,1.30
2023-02-27T03:16:37.035Z,1.27
2023-02-27T03:19:13.176Z,0.60
2023-02-27T03:22:02.273Z,0.90
2023-02-27T03:25:04.326Z,0.55
2023-02-27T03:27:37.097Z,0.80
2023-02-27T03:30:15.963Z,0.60
2023-02-27T03:32:56.905Z,0.60
2023-02-27T03:35:32.677Z,1.05
2023-02-27T03:38:12.240Z,0.80
2023-02-27T03:41:03.600Z,0.65
2023-02-27T03:43:55.435Z,1.40
2023-02-27T03:46:26.517Z,0.83
2023-02-27T03:48:53.158Z,1.00
2023-02-27T03:51:22.582Z,0.75
2023-02-27T03:54:10.082Z,0.65
2023-02-27T03:56:52.015Z,1.35
2023-02-27T03:59:18.965Z,0.83
2023-02-27T04:01:45.812Z,0.70
2023-02-27T04:04:14.762Z,1.00
2023-02-27T04:07:07.365Z,1.05
2023-02-27T04:09:41.600Z,0.70
2023-02-27T04:12:22.955Z,1.17
2023-02-27T04:14:52.194Z,1.17
2023-02-27T04:17:27.863Z,1.10
2023-02-27T04:20:29.414Z,1.13
2023-02-27T04:23:02.865Z,1.17
2023-02-27T04:25:51.837Z,1.13
2023-02-27T04:28:18.303Z,0.80
2023-02-27T04:31:17.486Z,1.15
2023-02-27T04:33:52.076Z,0.85
2023-02-27T04:36:27.401Z,1.00
2023-02-27T04:38:59.559Z,1.23
2023-02-27T04:41:33.389Z,1.20
2023-02-27T04:44:02.022Z,0.88
2023-02-27T04:46:31.519Z,1.25
2023-02-27T04:49:01.079Z,1.35
2023-02-27T04:51:34.926Z,1.33
2023-02-27T04:54:11.770Z,1.48
2023-02-27T04:56:44.664Z,1.40
2023-02-27T04:59:21.996Z,1.80
2023-02-27T05:01:56.928Z,1.55
2023-02-27T05:04:27.245Z,1.40
2023-02-27T05:06:55.832Z,1.70
2023-02-27T05:09:53.189Z,1.65
2023-02-27T05:12:28.798Z,1.85
2023-02-27T05:15:04.630Z,1.70
2023-02-27T05:17:37.037Z,1.70
2023-02-27T05:20:07.257Z,1.85
2023-02-27T05:22:53.959Z,1.60
2023-02-27T05:25:33.427Z,1.20
2023-02-27T05:28:07.344Z,1.40
2023-02-27T05:30:40.680Z,1.80
2023-02-27T05:33:20.745Z,1.40
2023-02-27T05:35:54.852Z,1.98
2023-02-27T05:38:45.043Z,1.83
2023-02-27T05:41:19.708Z,1.90
2023-02-27T05:43:56.110Z,1.67
2023-02-27T05:46:27.363Z,1.30
2023-02-27T05:48:59.397Z,1.58
2023-02-27T05:51:30.135Z,1.52
2023-02-27T05:54:05.755Z,1.90
2023-02-27T05:56:35.449Z,0.93
2023-02-27T05:59:19.135Z,0.88
2023-02-27T06:01:46.511Z,1.30
2023-02-27T06:04:13.150Z,1.60
2023-02-27T06:06:41.936Z,1.50
2023-02-27T06:09:09.578Z,1.10
2023-02-27T06:11:36.021Z,1.52
2023-02-27T06:14:03.392Z,1.23
2023-02-27T06:16:30.588Z,0.90
2023-02-27T06:18:57.294Z,0.90
2023-02-27T06:21:24.045Z,1.30
2023-02-27T06:23:50.623Z,1.10
2023-02-27T06:26:17.928Z,1.20
2023-02-27T06:28:44.577Z,1.55
2023-02-27T06:31:11.042Z,1.40
2023-02-27T06:33:37.663Z,1.43
2023-02-27T06:36:04.562Z,0.98
2023-02-27T06:38:31.584Z,1.38
2023-02-27T06:40:58.843Z,1.00
2023-02-27T06:43:25.394Z,1.60
2023-02-27T06:45:56.838Z,1.53
2023-02-27T06:48:23.380Z,1.35
2023-02-27T06:50:53.913Z,1.10
2023-02-27T06:53:20.990Z,1.38
2023-02-27T06:55:47.554Z,1.20
2023-02-27T06:58:14.131Z,1.77
2023-02-27T07:00:41.516Z,1.08
2023-02-27T07:03:08.292Z,1.25
2023-02-27T07:05:34.774Z,1.13
2023-02-27T07:08:03.524Z,1.27
2023-02-27T07:10:30.709Z,1.20
2023-02-27T07:12:57.262Z,1.10
2023-02-27T07:15:24.571Z,1.05
2023-02-27T07:17:51.569Z,1.50
2023-02-27T07:20:18.178Z,1.52
2023-02-27T07:22:45.105Z,1.90
2023-02-27T07:25:11.677Z,1.63
2023-02-27T07:27:38.506Z,1.63
2023-02-27T07:30:05.541Z,1.13
2023-02-27T07:32:32.160Z,1.88
2023-02-27T07:34:58.804Z,1.70
2023-02-27T07:37:27.639Z,1.58
2023-02-27T07:39:54.606Z,1.30
2023-02-27T07:42:21.198Z,1.38
2023-02-27T07:44:47.791Z,1.35
2023-02-27T07:47:14.283Z,1.00
2023-02-27T07:49:40.823Z,1.30
2023-02-27T07:52:08.312Z,0.77
2023-02-27T07:54:37.105Z,1.25
2023-02-27T07:57:04.878Z,1.13
2023-02-27T07:59:31.389Z,1.07
2023-02-27T08:01:58.035Z,1.42
2023-02-27T08:04:24.577Z,1.27
2023-02-27T08:06:51.479Z,0.90
2023-02-27T08:09:17.972Z,1.17
2023-02-27T08:11:45.213Z,0.73
2023-02-27T08:14:12.351Z,0.98
2023-02-27T08:16:38.874Z,1.15
2023-02-27T08:19:05.513Z,1.27
2023-02-27T08:21:31.977Z,1.10
2023-02-27T08:23:58.757Z,1.20
2023-02-27T08:26:25.571Z,0.70
2023-02-27T08:28:52.236Z,1.55
2023-02-27T08:31:18.855Z,1.13
2023-02-27T08:33:45.502Z,1.58
2023-02-27T08:36:12.111Z,1.20
2023-02-27T08:38:38.900Z,0.98
2023-02-27T08:41:05.648Z,0.88
2023-02-27T08:43:32.209Z,1.15
2023-02-27T08:45:58.809Z,1.40
2023-02-27T08:48:25.394Z,1.30
2023-02-27T08:50:52.422Z,1.58
2023-02-27T08:53:19.246Z,1.27
2023-02-27T08:55:51.015Z,0.80
2023-02-27T08:58:18.741Z,1.10
2023-02-27T09:00:45.978Z,1.00
2023-02-27T09:03:12.564Z,0.88
2023-02-27T09:05:39.692Z,0.95
2023-02-27T09:08:07.134Z,0.75
2023-02-27T09:10:33.778Z,0.95
2023-02-27T09:13:00.636Z,1.10
2023-02-27T09:15:27.495Z,1.15
2023-02-27T09:17:56.513Z,0.80
2023-02-27T09:20:23.063Z,1.13
2023-02-27T09:22:49.711Z,0.90
2023-02-27T09:25:16.277Z,0.70
2023-02-27T09:27:42.951Z,0.60
2023-02-27T09:30:10.428Z,0.70
2023-02-27T09:32:36.977Z,0.80
2023-02-27T09:35:04.000Z,0.85
2023-02-27T09:37:30.633Z,0.60
2023-02-27T09:39:57.106Z,0.60
2023-02-27T09:42:26.584Z,0.40
2023-02-27T09:44:57.848Z,1.15
2023-02-27T09:47:30.672Z,0.60
2023-02-27T09:50:25.078Z,0.50
2023-02-27T09:52:51.762Z,1.13
2023-02-27T09:55:21.637Z,0.50
2023-02-27T09:58:06.772Z,0.52
2023-02-27T10:00:57.311Z,0.80
2023-02-27T10:03:23.882Z,0.40
2023-02-27T10:05:57.150Z,0.88
2023-02-27T10:08:32.048Z,0.50
2023-02-27T10:11:12.270Z,0.68
2023-02-27T10:13:50.974Z,0.50
2023-02-27T10:16:20.820Z,0.50
2023-02-27T10:18:54.975Z,0.50
2023-02-27T10:21:31.058Z,0.38
2023-02-27T10:24:01.618Z,0.40
2023-02-27T10:26:39.726Z,0.60
2023-02-27T10:29:15.549Z,0.40
2023-02-27T10:31:46.706Z,0.30
2023-02-27T10:34:16.372Z,0.38
2023-02-27T10:36:46.129Z,0.30
2023-02-27T10:39:17.664Z,0.60
2023-02-27T10:41:46.292Z,0.40
2023-02-27T10:44:20.459Z,0.30
2023-02-27T10:46:51.342Z,0.50
2023-02-27T10:49:20.933Z,0.40
2023-02-27T10:52:06.092Z,0.47
2023-02-27T10:54:32.672Z,0.53
2023-02-27T10:57:02.519Z,0.22
2023-02-27T10:59:33.354Z,0.40
2023-02-27T11:02:06.342Z,0.30
2023-02-27T11:04:37.034Z,0.50
2023-02-27T11:07:08.976Z,0.50
2023-02-27T11:09:36.777Z,0.30
2023-02-27T11:12:24.354Z,0.30
2023-02-27T11:14:57.256Z,0.30
2023-02-27T11:17:28.908Z,0.35
2023-02-27T11:19:56.862Z,0.33
2023-02-27T11:22:25.162Z,0.30
2023-02-27T11:25:12.992Z,0.40
2023-02-27T11:27:39.530Z,0.30
2023-02-27T11:30:25.909Z,0.50
2023-02-27T11:32:54.978Z,0.30
2023-02-27T11:35:28.613Z,0.28
2023-02-27T11:37:59.873Z,0.50
2023-02-27T11:40:50.306Z,0.20
2023-02-27T11:43:21.434Z,0.20
2023-02-27T11:46:21.588Z,0.20
2023-02-27T11:48:48.721Z,0.30
2023-02-27T11:51:15.305Z,0.30
2023-02-27T11:54:02.797Z,0.40
2023-02-27T11:56:39.772Z,0.30
2023-02-27T11:59:10.446Z,0.30
2023-02-27T12:01:45.861Z,0.32
2023-02-27T12:04:24.706Z,0.30
2023-02-27T12:06:59.406Z,0.20
2023-02-27T12:09:32.915Z,0.30
2023-02-27T12:12:03.251Z,0.30
2023-02-27T12:14:59.148Z,0.20
2023-02-27T12:17:32.883Z,0.20
2023-02-27T12:20:20.563Z,0.22
2023-02-27T12:22:51.841Z,0.30
2023-02-27T12:25:40.874Z,0.20
2023-02-27T12:28:21.453Z,0.47
2023-02-27T12:31:10.480Z,0.20
2023-02-27T12:33:56.550Z,0.30
2023-02-27T12:36:23.454Z,0.22
2023-02-27T12:38:50.040Z,0.37
2023-02-27T12:41:43.960Z,0.20
2023-02-27T12:44:48.328Z,0.40
2023-02-27T12:47:32.745Z,0.40
2023-02-27T12:50:06.490Z,0.30
2023-02-27T12:53:01.375Z,0.20
2023-02-27T12:55:31.735Z,0.40
2023-02-27T12:58:07.783Z,0.20
2023-02-27T13:01:06.439Z,0.40
2023-02-27T13:03:37.307Z,0.50
2023-02-27T13:06:29.524Z,0.30
2023-02-27T13:09:18.205Z,0.30
2023-02-27T13:11:57.519Z,0.40
2023-02-27T13:14:51.596Z,0.30
2023-02-27T13:17:34.782Z,0.30
2023-02-27T13:20:22.485Z,0.30
2023-02-27T13:23:04.594Z,0.40
2023-02-27T13:25:36.496Z,0.38
2023-02-27T13:28:09.034Z,0.40
2023-02-27T13:30:42.257Z,0.40
2023-02-27T13:33:30.386Z,0.40
2023-02-27T13:36:15.124Z,0.50
2023-02-27T13:38:45.990Z,0.60
2023-02-27T13:41:24.646Z,0.30
2023-02-27T13:43:53.409Z,0.57
2023-02-27T13:46:27.183Z,0.30
2023-02-27T13:49:05.887Z,0.40
2023-02-27T13:51:45.754Z,0.50
2023-02-27T13:54:15.407Z,0.40
2023-02-27T13:56:48.145Z,0.40
2023-02-27T13:59:27.072Z,0.33
2023-02-27T14:01:57.423Z,0.57
2023-02-27T14:04:27.369Z,0.30
2023-02-27T14:06:59.950Z,0.30
2023-02-27T14:09:36.999Z,0.45
2023-02-27T14:12:06.615Z,0.30
2023-02-27T14:14:41.412Z,0.40
2023-02-27T14:17:28.941Z,0.68
2023-02-27T14:19:57.315Z,0.40
2023-02-27T14:22:36.333Z,0.40
2023-02-27T14:25:13.928Z,0.40
2023-02-27T14:27:43.213Z,0.38
2023-02-27T14:30:30.276Z,0.60
2023-02-27T14:33:21.722Z,0.30
2023-02-27T14:35:58.769Z,0.50
2023-02-27T14:38:28.234Z,0.50
2023-02-27T14:41:12.908Z,0.93
2023-02-27T14:43:53.616Z,1.02
2023-02-27T14:46:36.653Z,1.58
2023-02-27T14:49:16.574Z,1.58
2023-02-27T14:51:43.625Z,0.97
2023-02-27T14:54:19.387Z,1.00
2023-02-27T14:57:02.158Z,0.90
2023-02-27T14:59:51.003Z,0.70
2023-02-27T15:02:26.086Z,0.55
2023-02-27T15:05:13.626Z,0.40
2023-02-27T15:07:40.629Z,0.50
2023-02-27T15:10:11.831Z,0.70
2023-02-27T15:12:39.876Z,0.40
2023-02-27T15:15:09.061Z,0.40
2023-02-27T15:17:41.677Z,0.40
2023-02-27T15:20:27.574Z,0.43
2023-02-27T15:22:54.167Z,0.52
2023-02-27T15:25:27.689Z,0.73
2023-02-27T15:28:00.042Z,0.63
2023-02-27T15:30:26.636Z,1.00
2023-02-27T15:32:55.633Z,1.20
2023-02-27T15:35:27.826Z,1.40
2023-02-27T15:37:57.089Z,0.77
2023-02-27T15:40:31.868Z,1.00
2023-02-27T15:43:00.205Z,0.60
2023-02-27T15:45:33.172Z,0.57
2023-02-27T15:47:59.981Z,0.55
2023-02-27T15:50:32.052Z,0.60
2023-02-27T15:53:10.862Z,0.93
2023-02-27T15:55:41.782Z,0.53
2023-02-27T15:58:27.136Z,0.60
2023-02-27T16:01:03.317Z,0.75
2023-02-27T16:03:35.628Z,0.90
2023-02-27T16:06:02.775Z,0.60
2023-02-27T16:08:31.470Z,0.67
2023-02-27T16:10:58.214Z,0.60
2023-02-27T16:13:27.617Z,0.80
2023-02-27T16:16:03.336Z,0.50
2023-02-27T16:18:36.575Z,1.15
2023-02-27T16:21:15.082Z,0.60
2023-02-27T16:23:44.013Z,0.50
2023-02-27T16:26:38.441Z,0.70
2023-02-27T16:29:15.988Z,0.50
2023-02-27T16:31:49.086Z,0.60
2023-02-27T16:34:26.135Z,0.40
2023-02-27T16:36:58.712Z,1.10
2023-02-27T16:39:26.007Z,0.57
2023-02-27T16:41:54.167Z,0.82
2023-02-27T16:44:21.602Z,0.80
2023-02-27T16:46:48.272Z,0.60
2023-02-27T16:49:23.887Z,0.50
2023-02-27T16:51:50.705Z,0.50
2023-02-27T16:54:18.103Z,0.52
2023-02-27T16:56:46.664Z,0.80
2023-02-27T16:59:30.142Z,0.70
2023-02-27T17:01:58.077Z,0.68
2023-02-27T17:04:26.696Z,0.80
2023-02-27T17:06:54.733Z,1.50
2023-02-27T17:09:22.495Z,2.00
2023-02-27T17:11:50.214Z,2.57
2023-02-27T17:14:17.007Z,2.30
2023-02-27T17:16:43.584Z,1.65
2023-02-27T17:19:10.352Z,1.10
2023-02-27T17:21:36.845Z,1.30
2023-02-27T17:24:03.452Z,2.20
2023-02-27T17:26:31.136Z,1.85
2023-02-27T17:28:58.501Z,1.42
2023-02-27T17:31:25.697Z,3.28
2023-02-27T17:33:54.045Z,2.97
2023-02-27T17:36:22.111Z,3.80
2023-02-27T17:38:53.400Z,2.65
2023-02-27T17:41:19.973Z,3.08
2023-02-27T17:43:51.259Z,3.55
2023-02-27T17:46:17.841Z,3.42
2023-02-27T17:48:44.370Z,2.90
2023-02-27T17:51:13.565Z,2.53
2023-02-27T17:53:40.595Z,2.33
2023-02-27T17:56:08.007Z,3.17
2023-02-27T17:58:34.899Z,3.15
2023-02-27T18:01:22.962Z,3.10
2023-02-27T18:03:50.362Z,2.45
2023-02-27T18:06:17.328Z,2.35
2023-02-27T18:08:43.795Z,2.17
2023-02-27T18:11:12.243Z,1.80
2023-02-27T18:13:39.884Z,1.70
2023-02-27T18:16:06.932Z,2.13
2023-02-27T18:18:37.661Z,2.58
2023-02-27T18:21:07.700Z,2.15
2023-02-27T18:23:34.383Z,1.80
2023-02-27T18:26:01.041Z,1.70
2023-02-27T18:28:28.581Z,1.80
2023-02-27T18:30:55.196Z,1.52
2023-02-27T18:33:23.066Z,2.33
2023-02-27T18:35:50.300Z,2.10
2023-02-27T18:38:17.429Z,1.70
2023-02-27T18:40:43.924Z,2.00
2023-02-27T18:43:11.476Z,2.15
2023-02-27T18:45:38.311Z,3.03
2023-02-27T18:48:05.145Z,3.42
2023-02-27T18:50:31.684Z,3.60
2023-02-27T18:53:01.344Z,4.35
2023-02-27T18:55:28.111Z,4.22
2023-02-27T18:57:54.703Z,3.80
2023-02-27T19:00:22.037Z,3.55
2023-02-27T19:02:48.682Z,4.40
2023-02-27T19:05:15.248Z,4.78
2023-02-27T19:07:42.486Z,3.70
2023-02-27T19:10:10.471Z,3.10
2023-02-27T19:12:37.048Z,3.60
2023-02-27T19:15:05.502Z,3.30
2023-02-27T19:17:32.417Z,2.85
2023-02-27T19:19:59.198Z,2.20
2023-02-27T19:22:29.494Z,2.17
2023-02-27T19:24:57.651Z,2.58
2023-02-27T19:27:24.534Z,2.43
2023-02-27T19:29:51.391Z,3.10
2023-02-27T19:32:18.487Z,2.60
2023-02-27T19:34:45.199Z,3.10
2023-02-27T19:37:11.703Z,3.90
2023-02-27T19:39:38.237Z,3.20
2023-02-27T19:42:04.882Z,2.72
2023-02-27T19:44:31.445Z,2.15
2023-02-27T19:46:57.945Z,2.17
2023-02-27T19:49:24.504Z,2.30
2023-02-27T19:51:51.136Z,1.77
2023-02-27T19:54:17.771Z,2.28
2023-02-27T19:56:44.801Z,1.75
2023-02-27T19:59:12.330Z,1.48
2023-02-27T20:01:39.207Z,1.35
2023-02-27T20:04:07.828Z,1.40
2023-02-27T20:06:42.147Z,1.48
2023-02-27T20:09:11.564Z,1.23
2023-02-27T20:11:38.198Z,1.80
2023-02-27T20:14:05.012Z,1.80
2023-02-27T20:16:35.625Z,1.53
2023-02-27T20:19:04.059Z,3.03
2023-02-27T20:21:33.013Z,7.05
2023-02-27T20:24:00.437Z,3.83
2023-02-27T20:26:35.576Z,1.90
2023-02-27T20:29:06.711Z,1.50
2023-02-27T20:31:36.550Z,1.35
2023-02-27T20:34:05.973Z,1.20
2023-02-27T20:36:34.518Z,1.55
2023-02-27T20:39:01.246Z,1.33
2023-02-27T20:41:29.783Z,2.07
2023-02-27T20:43:56.766Z,3.10
2023-02-27T20:46:26.601Z,1.70
2023-02-27T20:48:55.175Z,1.52
2023-02-27T20:51:23.929Z,1.58
2023-02-27T20:53:55.838Z,1.47
2023-02-27T20:56:24.774Z,1.42
2023-02-27T20:58:51.347Z,1.65
2023-02-27T21:01:18.792Z,1.88
2023-02-27T21:03:46.980Z,2.45
2023-02-27T21:06:15.756Z,2.00
2023-02-27T21:08:45.790Z,1.52
2023-02-27T21:11:19.245Z,1.52
2023-02-27T21:13:50.003Z,1.67
2023-02-27T21:16:25.816Z,1.98
2023-02-27T21:18:54.032Z,1.70
2023-02-27T21:21:24.517Z,2.00
2023-02-27T21:23:51.855Z,2.15
2023-02-27T21:26:28.264Z,1.73
2023-02-27T21:28:57.655Z,1.80
2023-02-27T21:31:26.428Z,1.53
2023-02-27T21:33:54.229Z,2.10
2023-02-27T21:36:36.852Z,2.67
2023-02-27T21:39:07.270Z,2.33
2023-02-27T21:41:34.763Z,2.22
2023-02-27T21:44:03.429Z,2.00
2023-02-27T21:46:31.729Z,1.80
2023-02-27T21:48:58.565Z,1.33
2023-02-27T21:51:40.386Z,2.10
2023-02-27T21:54:10.409Z,1.90
2023-02-27T21:56:37.667Z,1.60
2023-02-27T21:59:04.451Z,1.60
2023-02-27T22:01:32.078Z,1.50
2023-02-27T22:03:58.893Z,2.15
2023-02-27T22:06:27.550Z,2.10
2023-02-27T22:08:58.281Z,1.70
2023-02-27T22:11:26.902Z,1.83
2023-02-27T22:13:54.043Z,2.00
2023-02-27T22:16:21.504Z,1.88
2023-02-27T22:18:48.756Z,2.00
2023-02-27T22:21:17.691Z,1.80
2023-02-27T22:23:45.329Z,2.17
2023-02-27T22:26:20.534Z,1.73
2023-02-27T22:28:47.386Z,1.50
2023-02-27T22:31:23.037Z,1.50
2023-02-27T22:33:54.019Z,1.57
2023-02-27T22:36:23.540Z,1.83
2023-02-27T22:38:50.047Z,2.50
2023-02-27T22:41:47.461Z,2.15
2023-02-27T22:44:16.095Z,2.50
2023-02-27T22:46:45.775Z,1.80
2023-02-27T22:49:20.879Z,1.90
2023-02-27T22:51:51.052Z,2.53
2023-02-27T22:54:21.118Z,2.20
2023-02-27T22:56:50.706Z,2.22
2023-02-27T22:59:17.262Z,1.73
2023-02-27T23:01:44.205Z,2.28
2023-02-27T23:04:11.607Z,2.03
2023-02-27T23:06:40.612Z,2.13
2023-02-27T23:09:10.709Z,1.88
2023-02-27T23:11:37.240Z,2.10
2023-02-27T23:14:03.893Z,2.00
2023-02-27T23:16:30.474Z,1.98
2023-02-27T23:18:58.875Z,2.17
2023-02-27T23:21:34.602Z,1.58
2023-02-27T23:24:13.071Z,1.90
2023-02-27T23:26:42.024Z,1.83
2023-02-27T23:29:09.828Z,1.50
2023-02-27T23:31:37.461Z,1.30
2023-02-27T23:34:07.940Z,1.55
2023-02-27T23:36:38.920Z,1.60
2023-02-27T23:39:07.115Z,1.55
2023-02-27T23:41:34.173Z,1.83
2023-02-27T23:44:01.582Z,1.83
2023-02-27T23:46:30.307Z,1.80
2023-02-27T23:48:58.496Z,1.50
2023-02-27T23:51:25.126Z,1.50
2023-02-27T23:53:51.612Z,1.98
2023-02-27T23:56:24.577Z,1.90
2023-02-27T23:58:55.171Z,2.30
